createdAt,value
2023-05-17T04:16:48.598Z,100257.63
2023-05-17T04:22:51.534Z,100261.84
2023-05-17T04:28:56.592Z,100272.03
2023-05-17T04:34:59.086Z,100278.44
2023-05-17T04:41:06.241Z,100270.25
2023-05-17T04:47:12.737Z,100274.00
2023-05-17T04:53:16.050Z,100297.06
2023-05-17T04:59:18.647Z,100297.28
2023-05-17T05:05:25.040Z,100301.56
2023-05-17T05:11:28.578Z,100302.13
2023-05-17T05:17:31.782Z,100303.56
2023-05-17T05:23:36.682Z,100300.19
2023-05-17T05:29:43.265Z,100305.50
2023-05-17T05:35:47.585Z,100314.16
2023-05-17T05:41:50.159Z,100296.44
2023-05-17T05:47:53.939Z,100299.19
2023-05-17T05:53:57.508Z,100314.38
2023-05-17T05:59:59.842Z,100307.31
2023-05-17T06:06:03.979Z,100321.09
2023-05-17T06:12:07.567Z,100315.19
2023-05-17T06:18:14.009Z,100321.38
2023-05-17T06:24:20.233Z,100321.84
2023-05-17T06:30:22.684Z,100323.66
2023-05-17T06:36:27.157Z,100331.25
2023-05-17T06:42:34.903Z,100330.47
2023-05-17T06:48:39.308Z,100326.56
2023-05-17T06:54:42.582Z,100324.28
2023-05-17T07:00:47.178Z,100322.03
2023-05-17T07:06:50.542Z,100330.13
2023-05-17T07:13:00.108Z,100341.09
2023-05-17T07:19:06.576Z,100338.78
2023-05-17T07:25:12.409Z,100343.75
2023-05-17T07:31:16.362Z,100341.84
2023-05-17T07:37:18.696Z,100346.81
2023-05-17T07:43:25.017Z,100350.25
2023-05-17T07:49:27.969Z,100355.13
2023-05-17T07:55:33.161Z,100363.38
2023-05-17T08:01:38.378Z,100351.03
2023-05-17T08:07:41.637Z,100369.28
2023-05-17T08:13:47.327Z,100375.38
2023-05-17T08:19:51.643Z,100368.00
2023-05-17T08:25:54.950Z,100372.22
2023-05-17T08:31:58.321Z,100387.75
2023-05-17T08:38:02.540Z,100390.94
2023-05-17T08:44:07.143Z,100395.44
2023-05-17T08:50:13.103Z,100382.69
2023-05-17T08:56:24.048Z,100385.22
2023-05-17T09:02:32.045Z,100372.47
2023-05-17T09:08:35.891Z,100382.63
2023-05-17T09:14:46.673Z,100376.72
2023-05-17T09:21:02.117Z,100378.25
2023-05-17T09:27:06.315Z,100382.63
2023-05-17T09:33:14.064Z,100376.88
2023-05-17T09:39:21.493Z,100372.06
2023-05-17T09:45:25.038Z,100372.72
2023-05-17T09:51:34.703Z,100371.44
2023-05-17T09:57:41.105Z,100367.81
2023-05-17T10:03:45.431Z,100365.13
2023-05-17T10:09:54.623Z,100369.00
2023-05-17T10:15:58.005Z,100366.66
2023-05-17T10:22:18.932Z,100366.25
2023-05-17T10:28:30.808Z,100357.16
2023-05-17T10:34:37.091Z,100362.59
2023-05-17T10:40:43.375Z,100350.25
2023-05-17T10:46:57.202Z,100350.16
2023-05-17T10:53:00.146Z,100350.47
2023-05-17T10:59:30.034Z,100349.56
2023-05-17T11:05:33.374Z,100344.97
2023-05-17T11:11:37.246Z,100345.09
2023-05-17T11:18:01.250Z,100337.72
2023-05-17T11:24:06.231Z,100336.31
2023-05-17T11:30:29.623Z,100316.66
2023-05-17T11:36:56.068Z,100313.50
2023-05-17T11:43:18.246Z,100308.03
2023-05-17T11:49:34.349Z,100297.47
2023-05-17T11:55:47.759Z,100284.72
2023-05-17T12:01:53.391Z,100283.44
2023-05-17T12:07:56.686Z,100273.88
2023-05-17T12:14:01.542Z,100258.81
2023-05-17T12:20:11.663Z,100248.38
2023-05-17T12:26:16.098Z,100241.69
2023-05-17T12:32:20.616Z,100245.34
2023-05-17T12:38:28.228Z,100235.75
2023-05-17T12:44:31.378Z,100226.63
2023-05-17T12:50:36.163Z,100217.56
2023-05-17T12:56:38.511Z,100217.31
2023-05-17T13:02:45.320Z,100198.84
2023-05-17T13:08:59.318Z,100200.47
2023-05-17T13:15:01.616Z,100180.47
2023-05-17T13:21:07.732Z,100179.22
2023-05-17T13:27:15.100Z,100183.06
2023-05-17T13:33:18.757Z,100175.03
2023-05-17T13:39:22.226Z,100184.66
2023-05-17T13:45:24.689Z,100187.75
2023-05-17T13:51:27.233Z,100183.16
2023-05-17T13:57:29.610Z,100187.75
2023-05-17T14:03:33.206Z,100196.97
2023-05-17T14:09:37.129Z,100200.41
2023-05-17T14:15:41.083Z,100186.19
2023-05-17T14:21:43.438Z,100196.16
2023-05-17T14:27:45.794Z,100195.81
2023-05-17T14:33:51.086Z,100191.97
2023-05-17T14:40:05.771Z,100189.28
2023-05-17T14:46:09.424Z,100181.94
2023-05-17T14:52:11.728Z,100180.75
2023-05-17T14:58:17.006Z,100184.91
2023-05-17T15:04:20.745Z,100190.66
2023-05-17T15:10:23.239Z,100183.97
2023-05-17T15:16:28.289Z,100183.53
2023-05-17T15:22:32.685Z,100189.66
2023-05-17T15:28:38.678Z,100190.41
2023-05-17T15:34:42.236Z,100182.75
2023-05-17T15:40:57.010Z,100177.75
2023-05-17T15:47:02.322Z,100180.00
2023-05-17T15:53:05.421Z,100186.41
2023-05-17T15:59:08.621Z,100191.31
2023-05-17T16:05:11.000Z,100199.31
2023-05-17T16:11:13.922Z,100196.25
2023-05-17T16:17:17.958Z,100195.38
2023-05-17T16:23:27.488Z,100206.44
2023-05-17T16:29:29.815Z,100204.00
2023-05-17T16:35:32.951Z,100205.00
2023-05-17T16:41:38.938Z,100213.28
2023-05-17T16:47:44.016Z,100213.66
2023-05-17T16:53:50.304Z,100217.06
2023-05-17T16:59:57.350Z,100223.63
2023-05-17T17:06:07.024Z,100231.94
2023-05-17T17:12:24.176Z,100237.97
2023-05-17T17:18:29.730Z,100244.31
2023-05-17T17:24:33.757Z,100243.44
2023-05-17T17:30:36.110Z,100253.69
2023-05-17T17:36:38.603Z,100258.25
2023-05-17T17:42:43.977Z,100254.34
2023-05-17T17:48:47.921Z,100255.50
2023-05-17T17:54:50.758Z,100259.94
2023-05-17T18:00:54.692Z,100265.50
2023-05-17T18:07:01.408Z,100262.56
2023-05-17T18:13:05.232Z,100265.88
2023-05-17T18:19:08.324Z,100275.34
2023-05-17T18:25:10.773Z,100282.19
2023-05-17T18:31:16.226Z,100288.91
2023-05-17T18:37:19.934Z,100298.03
2023-05-17T18:43:24.621Z,100302.09
2023-05-17T18:49:27.455Z,100306.84
2023-05-17T18:55:33.414Z,100314.81
2023-05-17T19:01:37.178Z,100318.94
2023-05-17T19:07:39.473Z,100321.47
2023-05-17T19:13:42.518Z,100327.97
2023-05-17T19:19:46.030Z,100326.06
2023-05-17T19:25:48.931Z,100330.84
2023-05-17T19:31:51.469Z,100338.69
2023-05-17T19:37:58.223Z,100349.22
2023-05-17T19:44:00.533Z,100340.22
2023-05-17T19:50:06.622Z,100333.66
2023-05-17T19:56:10.795Z,100325.72
2023-05-17T20:02:13.128Z,100327.44
2023-05-17T20:08:16.755Z,100327.91
2023-05-17T20:14:19.690Z,100316.44
2023-05-17T20:20:22.336Z,100327.44
2023-05-17T20:26:27.313Z,100314.88
2023-05-17T20:32:29.679Z,100310.31
2023-05-17T20:38:32.660Z,100321.69
2023-05-17T20:44:37.818Z,100319.75
2023-05-17T20:50:40.082Z,100325.41
2023-05-17T20:56:42.424Z,100329.69
2023-05-17T21:02:45.627Z,100326.34
2023-05-17T21:08:49.212Z,100327.31
2023-05-17T21:15:03.697Z,100316.91
2023-05-17T21:21:12.971Z,100309.81
2023-05-17T21:27:16.988Z,100300.38
2023-05-17T21:33:19.303Z,100303.53
2023-05-17T21:39:22.272Z,100300.28
2023-05-17T21:45:24.985Z,100298.28
2023-05-17T21:51:29.793Z,100296.75
2023-05-17T21:57:36.471Z,100302.66
2023-05-17T22:03:39.947Z,100298.97
2023-05-17T22:09:45.713Z,100289.41
2023-05-17T22:15:49.970Z,100283.22
2023-05-17T22:21:54.314Z,100274.09
2023-05-17T22:27:56.907Z,100276.81
2023-05-17T22:33:59.150Z,100263.56
2023-05-17T22:40:01.759Z,100259.63
2023-05-17T22:46:04.883Z,100266.00
2023-05-17T22:52:08.120Z,100264.34
2023-05-17T22:58:12.858Z,100260.81
2023-05-17T23:04:15.535Z,100247.00
2023-05-17T23:10:18.071Z,100252.28
2023-05-17T23:16:20.808Z,100268.13
2023-05-17T23:22:25.670Z,100281.03
2023-05-17T23:28:28.493Z,100276.19
2023-05-17T23:34:32.085Z,100287.09
2023-05-17T23:40:35.732Z,100279.91
2023-05-17T23:46:38.593Z,100275.81
2023-05-17T23:52:41.033Z,100273.56
2023-05-17T23:58:45.718Z,100272.41
